sensor_id;sensor_type;location;lat;lon;timestamp;pressure;altitude;pressure_sealevel;temperature;humidity
33153;BME280;19509;43.862;26.176;2022-09-09T00:00:24;100790.94;;;19.23;58.50
33153;BME280;19509;43.862;26.176;2022-09-09T00:03:03;100791.75;;;19.24;57.95
33153;BME280;19509;43.862;26.176;2022-09-09T00:05:44;100790.38;;;19.21;58.90
33153;BME280;19509;43.862;26.176;2022-09-09T00:08:19;100782.72;;;19.18;58.90
33153;BME280;19509;43.862;26.176;2022-09-09T00:10:51;100789.06;;;18.91;59.80
33153;BME280;19509;43.862;26.176;2022-09-09T00:13:31;100788.13;;;18.76;61.01
33153;BME280;19509;43.862;26.176;2022-09-09T00:16:19;100781.97;;;18.90;59.74
33153;BME280;19509;43.862;26.176;2022-09-09T00:18:51;100790.94;;;18.86;59.92
33153;BME280;19509;43.862;26.176;2022-09-09T00:21:18;100785.72;;;18.84;60.43
33153;BME280;19509;43.862;26.176;2022-09-09T00:23:51;100795.50;;;18.75;60.41
33153;BME280;19509;43.862;26.176;2022-09-09T00:26:47;100787.41;;;18.58;60.28
33153;BME280;19509;43.862;26.176;2022-09-09T00:30:21;100789.63;;;18.61;60.67
33153;BME280;19509;43.862;26.176;2022-09-09T00:32:17;100796.81;;;18.73;60.14
33153;BME280;19509;43.862;26.176;2022-09-09T00:34:56;100785.66;;;18.74;60.02
33153;BME280;19509;43.862;26.176;2022-09-09T00:37:26;100781.59;;;18.77;58.92
33153;BME280;19509;43.862;26.176;2022-09-09T00:39:55;100784.59;;;18.75;59.60
33153;BME280;19509;43.862;26.176;2022-09-09T00:45:45;100787.31;;;18.75;59.31
33153;BME280;19509;43.862;26.176;2022-09-09T00:48:13;100779.31;;;18.68;59.42
33153;BME280;19509;43.862;26.176;2022-09-09T00:53:18;100784.31;;;18.77;58.95
33153;BME280;19509;43.862;26.176;2022-09-09T00:55:53;100783.19;;;18.73;58.69
33153;BME280;19509;43.862;26.176;2022-09-09T00:58:21;100792.47;;;18.72;58.79
33153;BME280;19509;43.862;26.176;2022-09-09T01:00:51;100791.78;;;18.64;58.96
33153;BME280;19509;43.862;26.176;2022-09-09T01:03:29;100796.69;;;18.62;59.43
33153;BME280;19509;43.862;26.176;2022-09-09T01:11:47;100778.63;;;18.51;60.20
33153;BME280;19509;43.862;26.176;2022-09-09T01:17:19;100780.47;;;18.46;60.00
33153;BME280;19509;43.862;26.176;2022-09-09T01:20:29;100782.88;;;18.42;60.24
33153;BME280;19509;43.862;26.176;2022-09-09T01:23:22;100779.03;;;18.38;60.07
33153;BME280;19509;43.862;26.176;2022-09-09T01:28:46;100765.41;;;18.38;60.04
33153;BME280;19509;43.862;26.176;2022-09-09T01:31:17;100770.56;;;18.34;59.48
33153;BME280;19509;43.862;26.176;2022-09-09T01:33:42;100764.56;;;18.37;58.56
33153;BME280;19509;43.862;26.176;2022-09-09T01:36:34;100768.47;;;18.47;58.53
33153;BME280;19509;43.862;26.176;2022-09-09T01:38:58;100763.13;;;18.57;57.19
33153;BME280;19509;43.862;26.176;2022-09-09T01:41:24;100758.03;;;18.65;57.48
33153;BME280;19509;43.862;26.176;2022-09-09T01:43:50;100760.75;;;18.65;56.62
33153;BME280;19509;43.862;26.176;2022-09-09T01:46:17;100759.31;;;18.58;57.11
33153;BME280;19509;43.862;26.176;2022-09-09T01:48:44;100761.81;;;18.64;56.99
33153;BME280;19509;43.862;26.176;2022-09-09T01:51:10;100762.38;;;18.66;57.32
33153;BME280;19509;43.862;26.176;2022-09-09T01:53:37;100758.28;;;18.64;57.84
33153;BME280;19509;43.862;26.176;2022-09-09T02:04:23;100762.06;;;18.31;58.84
33153;BME280;19509;43.862;26.176;2022-09-09T02:06:55;100767.72;;;18.24;59.08
33153;BME280;19509;43.862;26.176;2022-09-09T02:09:24;100766.34;;;18.22;59.17
33153;BME280;19509;43.862;26.176;2022-09-09T02:11:56;100763.13;;;18.03;60.69
33153;BME280;19509;43.862;26.176;2022-09-09T02:14:30;100760.66;;;18.01;60.43
33153;BME280;19509;43.862;26.176;2022-09-09T02:17:03;100755.97;;;17.96;60.80
33153;BME280;19509;43.862;26.176;2022-09-09T02:19:35;100754.22;;;17.85;61.33
33153;BME280;19509;43.862;26.176;2022-09-09T02:22:02;100753.44;;;17.90;60.86
33153;BME280;19509;43.862;26.176;2022-09-09T02:24:35;100742.00;;;17.88;59.76
33153;BME280;19509;43.862;26.176;2022-09-09T02:27:04;100752.38;;;17.91;59.57
33153;BME280;19509;43.862;26.176;2022-09-09T02:29:41;100752.44;;;17.96;58.79
33153;BME280;19509;43.862;26.176;2022-09-09T02:32:09;100748.09;;;18.00;58.36
33153;BME280;19509;43.862;26.176;2022-09-09T02:34:48;100746.03;;;18.07;58.41
33153;BME280;19509;43.862;26.176;2022-09-09T02:37:18;100749.56;;;18.08;57.96
33153;BME280;19509;43.862;26.176;2022-09-09T02:39:44;100751.16;;;18.04;58.01
33153;BME280;19509;43.862;26.176;2022-09-09T02:42:09;100760.16;;;18.04;58.55
33153;BME280;19509;43.862;26.176;2022-09-09T02:44:35;100757.13;;;18.01;58.48
33153;BME280;19509;43.862;26.176;2022-09-09T02:52:57;100752.75;;;18.00;58.86
33153;BME280;19509;43.862;26.176;2022-09-09T02:57:48;100758.88;;;17.90;59.02
33153;BME280;19509;43.862;26.176;2022-09-09T03:00:14;100762.88;;;17.82;59.50
33153;BME280;19509;43.862;26.176;2022-09-09T03:02:40;100750.53;;;17.74;59.36
33153;BME280;19509;43.862;26.176;2022-09-09T03:05:07;100758.69;;;17.74;59.74
33153;BME280;19509;43.862;26.176;2022-09-09T03:07:33;100753.16;;;17.69;59.54
33153;BME280;19509;43.862;26.176;2022-09-09T03:09:58;100762.91;;;17.65;59.77
33153;BME280;19509;43.862;26.176;2022-09-09T03:12:24;100751.72;;;17.62;59.87
33153;BME280;19509;43.862;26.176;2022-09-09T03:14:49;100759.88;;;17.62;60.62
33153;BME280;19509;43.862;26.176;2022-09-09T03:17:15;100762.09;;;17.65;59.67
33153;BME280;19509;43.862;26.176;2022-09-09T03:19:40;100755.03;;;17.64;60.06
33153;BME280;19509;43.862;26.176;2022-09-09T03:22:06;100757.66;;;17.59;60.41
33153;BME280;19509;43.862;26.176;2022-09-09T03:24:31;100761.91;;;17.49;60.70
33153;BME280;19509;43.862;26.176;2022-09-09T03:26:57;100759.38;;;17.43;60.77
33153;BME280;19509;43.862;26.176;2022-09-09T03:29:22;100758.53;;;17.42;60.83
33153;BME280;19509;43.862;26.176;2022-09-09T03:31:48;100758.16;;;17.56;60.35
33153;BME280;19509;43.862;26.176;2022-09-09T03:34:13;100768.50;;;17.54;60.48
33153;BME280;19509;43.862;26.176;2022-09-09T03:36:40;100760.84;;;17.50;60.75
33153;BME280;19509;43.862;26.176;2022-09-09T03:39:06;100763.16;;;17.42;61.20
33153;BME280;19509;43.862;26.176;2022-09-09T03:41:31;100758.94;;;17.29;61.56
33153;BME280;19509;43.862;26.176;2022-09-09T03:43:57;100761.56;;;17.24;61.93
33153;BME280;19509;43.862;26.176;2022-09-09T03:46:24;100763.13;;;17.20;62.67
33153;BME280;19509;43.862;26.176;2022-09-09T03:48:50;100755.06;;;17.08;62.84
33153;BME280;19509;43.862;26.176;2022-09-09T03:51:17;100755.91;;;17.09;63.84
33153;BME280;19509;43.862;26.176;2022-09-09T03:53:43;100755.81;;;17.03;63.47
33153;BME280;19509;43.862;26.176;2022-09-09T03:56:09;100767.59;;;17.09;62.88
33153;BME280;19509;43.862;26.176;2022-09-09T03:58:35;100764.56;;;17.06;63.45
33153;BME280;19509;43.862;26.176;2022-09-09T04:01:04;100756.63;;;17.04;63.22
33153;BME280;19509;43.862;26.176;2022-09-09T04:03:30;100762.91;;;17.05;63.52
33153;BME280;19509;43.862;26.176;2022-09-09T04:05:57;100766.47;;;17.05;63.65
33153;BME280;19509;43.862;26.176;2022-09-09T04:08:24;100763.03;;;17.15;64.00
33153;BME280;19509;43.862;26.176;2022-09-09T04:10:53;100765.44;;;17.11;62.86
33153;BME280;19509;43.862;26.176;2022-09-09T04:13:19;100765.44;;;17.11;63.65
33153;BME280;19509;43.862;26.176;2022-09-09T04:15:54;100774.56;;;17.22;62.78
33153;BME280;19509;43.862;26.176;2022-09-09T04:18:20;100768.31;;;17.21;62.95
33153;BME280;19509;43.862;26.176;2022-09-09T04:20:47;100763.28;;;17.30;64.07
33153;BME280;19509;43.862;26.176;2022-09-09T04:23:13;100773.22;;;17.41;64.11
33153;BME280;19509;43.862;26.176;2022-09-09T04:25:44;100758.47;;;17.37;63.07
33153;BME280;19509;43.862;26.176;2022-09-09T04:28:10;100758.94;;;17.29;63.73
33153;BME280;19509;43.862;26.176;2022-09-09T04:30:35;100766.13;;;17.40;63.21
33153;BME280;19509;43.862;26.176;2022-09-09T04:33:01;100766.09;;;17.57;62.13
33153;BME280;19509;43.862;26.176;2022-09-09T04:35:26;100762.69;;;17.67;61.10
33153;BME280;19509;43.862;26.176;2022-09-09T04:37:52;100765.06;;;17.80;61.02
33153;BME280;19509;43.862;26.176;2022-09-09T04:40:18;100763.28;;;17.91;60.71
33153;BME280;19509;43.862;26.176;2022-09-09T04:42:43;100771.91;;;18.10;60.38
33153;BME280;19509;43.862;26.176;2022-09-09T04:45:09;100772.50;;;18.12;59.72
33153;BME280;19509;43.862;26.176;2022-09-09T04:47:36;100779.13;;;18.21;58.78
33153;BME280;19509;43.862;26.176;2022-09-09T04:50:02;100769.09;;;18.27;59.10
33153;BME280;19509;43.862;26.176;2022-09-09T04:52:27;100769.50;;;18.40;59.60
33153;BME280;19509;43.862;26.176;2022-09-09T04:54:53;100767.16;;;18.54;58.85
33153;BME280;19509;43.862;26.176;2022-09-09T04:57:19;100772.94;;;18.58;58.90
33153;BME280;19509;43.862;26.176;2022-09-09T04:59:44;100771.13;;;18.68;58.25
33153;BME280;19509;43.862;26.176;2022-09-09T05:02:11;100768.78;;;18.77;58.05
33153;BME280;19509;43.862;26.176;2022-09-09T05:04:36;100767.44;;;18.80;58.06
33153;BME280;19509;43.862;26.176;2022-09-09T05:07:01;100762.31;;;18.88;58.23
33153;BME280;19509;43.862;26.176;2022-09-09T05:09:27;100759.94;;;18.97;57.39
33153;BME280;19509;43.862;26.176;2022-09-09T05:11:52;100753.50;;;19.13;57.17
33153;BME280;19509;43.862;26.176;2022-09-09T05:14:18;100755.47;;;19.28;56.83
33153;BME280;19509;43.862;26.176;2022-09-09T05:16:46;100760.00;;;19.50;56.45
33153;BME280;19509;43.862;26.176;2022-09-09T05:19:12;100757.00;;;19.56;55.72
33153;BME280;19509;43.862;26.176;2022-09-09T05:21:38;100761.19;;;19.69;56.49
33153;BME280;19509;43.862;26.176;2022-09-09T05:24:03;100762.03;;;19.80;56.25
33153;BME280;19509;43.862;26.176;2022-09-09T05:26:29;100767.81;;;19.94;55.65
33153;BME280;19509;43.862;26.176;2022-09-09T05:28:54;100759.13;;;20.07;55.80
33153;BME280;19509;43.862;26.176;2022-09-09T05:31:20;100758.06;;;20.23;55.77
33153;BME280;19509;43.862;26.176;2022-09-09T05:33:48;100767.09;;;20.34;55.00
33153;BME280;19509;43.862;26.176;2022-09-09T05:36:17;100763.59;;;20.49;55.03
33153;BME280;19509;43.862;26.176;2022-09-09T05:38:43;100765.53;;;20.64;55.10
33153;BME280;19509;43.862;26.176;2022-09-09T05:41:09;100761.69;;;20.70;54.46
33153;BME280;19509;43.862;26.176;2022-09-09T05:43:37;100764.69;;;20.89;54.23
33153;BME280;19509;43.862;26.176;2022-09-09T05:48:37;100749.06;;;21.20;53.33
33153;BME280;19509;43.862;26.176;2022-09-09T05:51:04;100751.50;;;21.32;52.98
33153;BME280;19509;43.862;26.176;2022-09-09T05:53:32;100754.53;;;21.40;52.96
33153;BME280;19509;43.862;26.176;2022-09-09T05:56:28;100747.59;;;21.58;52.31
33153;BME280;19509;43.862;26.176;2022-09-09T05:58:54;100741.22;;;21.78;52.62
33153;BME280;19509;43.862;26.176;2022-09-09T06:01:25;100735.63;;;21.99;51.71
33153;BME280;19509;43.862;26.176;2022-09-09T06:03:52;100736.66;;;22.08;51.37
33153;BME280;19509;43.862;26.176;2022-09-09T06:06:23;100734.09;;;22.27;51.71
33153;BME280;19509;43.862;26.176;2022-09-09T06:08:52;100735.91;;;22.41;51.58
33153;BME280;19509;43.862;26.176;2022-09-09T06:11:23;100735.56;;;22.53;50.83
33153;BME280;19509;43.862;26.176;2022-09-09T06:13:49;100737.03;;;22.75;51.13
33153;BME280;19509;43.862;26.176;2022-09-09T06:16:20;100730.28;;;22.91;50.38
33153;BME280;19509;43.862;26.176;2022-09-09T06:18:45;100717.75;;;23.14;48.70
33153;BME280;19509;43.862;26.176;2022-09-09T06:21:19;100718.66;;;23.28;48.12
33153;BME280;19509;43.862;26.176;2022-09-09T06:23:46;100720.72;;;23.42;47.58
33153;BME280;19509;43.862;26.176;2022-09-09T06:26:18;100724.47;;;23.51;48.40
33153;BME280;19509;43.862;26.176;2022-09-09T06:28:45;100736.03;;;23.72;47.13
33153;BME280;19509;43.862;26.176;2022-09-09T06:31:13;100734.03;;;23.77;46.12
33153;BME280;19509;43.862;26.176;2022-09-09T06:33:40;100742.66;;;23.90;46.11
33153;BME280;19509;43.862;26.176;2022-09-09T06:36:33;100747.47;;;23.98;45.78
33153;BME280;19509;43.862;26.176;2022-09-09T06:39:00;100734.66;;;24.12;46.09
33153;BME280;19509;43.862;26.176;2022-09-09T06:41:27;100733.28;;;24.28;46.61
33153;BME280;19509;43.862;26.176;2022-09-09T06:43:53;100739.94;;;24.46;46.01
33153;BME280;19509;43.862;26.176;2022-09-09T06:46:22;100728.88;;;24.65;46.31
33153;BME280;19509;43.862;26.176;2022-09-09T06:48:48;100737.56;;;24.72;44.23
33153;BME280;19509;43.862;26.176;2022-09-09T06:51:19;100737.16;;;24.79;44.18
33153;BME280;19509;43.862;26.176;2022-09-09T06:53:46;100736.56;;;24.82;44.42
33153;BME280;19509;43.862;26.176;2022-09-09T06:58:44;100727.50;;;25.14;43.74
33153;BME280;19509;43.862;26.176;2022-09-09T07:01:15;100725.56;;;25.29;42.35
33153;BME280;19509;43.862;26.176;2022-09-09T07:03:42;100724.94;;;25.45;43.10
33153;BME280;19509;43.862;26.176;2022-09-09T07:06:17;100735.63;;;25.61;43.71
33153;BME280;19509;43.862;26.176;2022-09-09T07:08:43;100732.25;;;25.91;43.52
33153;BME280;19509;43.862;26.176;2022-09-09T07:11:09;100728.09;;;26.16;43.23
33153;BME280;19509;43.862;26.176;2022-09-09T07:13:36;100728.16;;;26.25;41.51
33153;BME280;19509;43.862;26.176;2022-09-09T07:16:06;100728.63;;;26.41;41.26
33153;BME280;19509;43.862;26.176;2022-09-09T07:18:32;100731.28;;;26.46;41.50
33153;BME280;19509;43.862;26.176;2022-09-09T07:20:58;100731.41;;;26.63;41.14
33153;BME280;19509;43.862;26.176;2022-09-09T07:23:24;100733.22;;;26.68;40.95
33153;BME280;19509;43.862;26.176;2022-09-09T07:25:50;100725.28;;;26.67;40.10
33153;BME280;19509;43.862;26.176;2022-09-09T07:28:18;100729.22;;;26.74;40.99
33153;BME280;19509;43.862;26.176;2022-09-09T07:30:52;100723.53;;;26.79;40.47
33153;BME280;19509;43.862;26.176;2022-09-09T07:33:18;100738.13;;;27.02;41.20
33153;BME280;19509;43.862;26.176;2022-09-09T07:35:45;100734.47;;;27.16;39.17
33153;BME280;19509;43.862;26.176;2022-09-09T07:38:11;100728.16;;;27.24;39.74
33153;BME280;19509;43.862;26.176;2022-09-09T07:40:37;100734.41;;;27.38;39.43
33153;BME280;19509;43.862;26.176;2022-09-09T07:43:02;100726.66;;;27.57;39.86
33153;BME280;19509;43.862;26.176;2022-09-09T07:45:28;100728.00;;;27.69;39.23
33153;BME280;19509;43.862;26.176;2022-09-09T07:47:54;100713.41;;;27.86;38.63
33153;BME280;19509;43.862;26.176;2022-09-09T07:50:22;100712.44;;;28.08;39.58
33153;BME280;19509;43.862;26.176;2022-09-09T07:52:49;100718.63;;;28.13;38.24
33153;BME280;19509;43.862;26.176;2022-09-09T07:55:14;100719.28;;;28.10;37.25
33153;BME280;19509;43.862;26.176;2022-09-09T07:57:40;100717.78;;;27.95;37.22
33153;BME280;19509;43.862;26.176;2022-09-09T08:00:06;100728.56;;;28.14;37.87
33153;BME280;19509;43.862;26.176;2022-09-09T08:02:31;100727.25;;;28.29;38.01
33153;BME280;19509;43.862;26.176;2022-09-09T08:04:57;100733.44;;;28.26;39.00
33153;BME280;19509;43.862;26.176;2022-09-09T08:07:22;100731.34;;;28.49;38.05
33153;BME280;19509;43.862;26.176;2022-09-09T08:09:48;100733.59;;;28.56;37.05
33153;BME280;19509;43.862;26.176;2022-09-09T08:12:14;100731.31;;;28.66;37.80
33153;BME280;19509;43.862;26.176;2022-09-09T08:14:40;100737.13;;;28.82;37.40
33153;BME280;19509;43.862;26.176;2022-09-09T08:17:05;100726.50;;;28.93;37.00
33153;BME280;19509;43.862;26.176;2022-09-09T08:19:31;100713.78;;;29.09;35.95
33153;BME280;19509;43.862;26.176;2022-09-09T08:22:00;100711.50;;;29.11;35.77
33153;BME280;19509;43.862;26.176;2022-09-09T08:24:27;100722.91;;;29.10;36.02
33153;BME280;19509;43.862;26.176;2022-09-09T08:26:53;100734.50;;;29.03;35.98
33153;BME280;19509;43.862;26.176;2022-09-09T08:29:19;100725.88;;;29.05;35.41
33153;BME280;19509;43.862;26.176;2022-09-09T08:31:47;100725.00;;;29.21;34.66
33153;BME280;19509;43.862;26.176;2022-09-09T08:34:13;100728.34;;;29.36;35.11
33153;BME280;19509;43.862;26.176;2022-09-09T08:36:41;100719.16;;;29.44;34.95
33153;BME280;19509;43.862;26.176;2022-09-09T08:39:09;100713.09;;;29.51;34.56
33153;BME280;19509;43.862;26.176;2022-09-09T08:44:17;100707.34;;;29.56;33.53
33153;BME280;19509;43.862;26.176;2022-09-09T08:52:27;100688.31;;;29.75;33.79
33153;BME280;19509;43.862;26.176;2022-09-09T08:54:59;100691.94;;;29.97;33.92
33153;BME280;19509;43.862;26.176;2022-09-09T08:57:28;100695.03;;;29.95;33.31
33153;BME280;19509;43.862;26.176;2022-09-09T08:59:56;100694.47;;;30.02;33.93
33153;BME280;19509;43.862;26.176;2022-09-09T09:02:28;100682.69;;;30.05;33.25
33153;BME280;19509;43.862;26.176;2022-09-09T09:10:50;100678.56;;;30.32;34.20
33153;BME280;19509;43.862;26.176;2022-09-09T09:13:45;100666.78;;;30.35;32.95
33153;BME280;19509;43.862;26.176;2022-09-09T09:16:20;100667.13;;;30.12;32.83
33153;BME280;19509;43.862;26.176;2022-09-09T09:18:49;100662.66;;;30.41;33.45
33153;BME280;19509;43.862;26.176;2022-09-09T09:21:21;100668.94;;;30.62;32.36
33153;BME280;19509;43.862;26.176;2022-09-09T09:23:56;100665.84;;;30.64;32.81
33153;BME280;19509;43.862;26.176;2022-09-09T09:26:25;100665.44;;;30.53;33.18
33153;BME280;19509;43.862;26.176;2022-09-09T09:28:55;100667.09;;;30.67;32.32
33153;BME280;19509;43.862;26.176;2022-09-09T09:31:21;100668.59;;;30.64;32.37
33153;BME280;19509;43.862;26.176;2022-09-09T09:33:53;100674.13;;;30.52;31.59
33153;BME280;19509;43.862;26.176;2022-09-09T09:36:21;100679.13;;;30.71;32.34
33153;BME280;19509;43.862;26.176;2022-09-09T09:38:57;100669.53;;;30.68;31.50
33153;BME280;19509;43.862;26.176;2022-09-09T09:41:51;100664.06;;;30.47;32.69
33153;BME280;19509;43.862;26.176;2022-09-09T09:46:48;100657.66;;;30.34;31.99
33153;BME280;19509;43.862;26.176;2022-09-09T09:49:14;100656.31;;;30.20;30.82
33153;BME280;19509;43.862;26.176;2022-09-09T09:51:39;100648.34;;;30.18;32.09
33153;BME280;19509;43.862;26.176;2022-09-09T09:57:11;100642.72;;;30.39;32.14
33153;BME280;19509;43.862;26.176;2022-09-09T09:59:37;100638.22;;;30.34;31.09
33153;BME280;19509;43.862;26.176;2022-09-09T10:02:26;100639.50;;;30.49;32.49
33153;BME280;19509;43.862;26.176;2022-09-09T10:05:02;100636.78;;;30.61;32.18
33153;BME280;19509;43.862;26.176;2022-09-09T10:07:28;100635.97;;;30.73;32.61
33153;BME280;19509;43.862;26.176;2022-09-09T10:09:56;100630.41;;;30.61;31.24
33153;BME280;19509;43.862;26.176;2022-09-09T10:18:16;100635.31;;;31.25;31.20
33153;BME280;19509;43.862;26.176;2022-09-09T10:21:25;100634.47;;;31.62;31.11
33153;BME280;19509;43.862;26.176;2022-09-09T10:25:03;100633.31;;;31.63;30.44
33153;BME280;19509;43.862;26.176;2022-09-09T10:27:08;100634.66;;;31.69;29.72
33153;BME280;19509;43.862;26.176;2022-09-09T10:32:45;100627.56;;;31.84;30.28
33153;BME280;19509;43.862;26.176;2022-09-09T10:35:21;100631.78;;;32.06;29.52
33153;BME280;19509;43.862;26.176;2022-09-09T10:38:14;100624.13;;;32.31;29.59
33153;BME280;19509;43.862;26.176;2022-09-09T10:40:48;100626.59;;;32.04;30.14
33153;BME280;19509;43.862;26.176;2022-09-09T10:59:58;100618.81;;;31.69;30.54
33153;BME280;19509;43.862;26.176;2022-09-09T11:02:31;100621.78;;;31.89;30.61
33153;BME280;19509;43.862;26.176;2022-09-09T11:05:03;100612.66;;;32.04;29.01
33153;BME280;19509;43.862;26.176;2022-09-09T11:07:42;100606.03;;;32.09;30.25
33153;BME280;19509;43.862;26.176;2022-09-09T11:13:20;100607.47;;;32.78;29.24
33153;BME280;19509;43.862;26.176;2022-09-09T11:15:51;100606.72;;;32.81;30.20
33153;BME280;19509;43.862;26.176;2022-09-09T11:18:20;100616.25;;;32.64;30.18
33153;BME280;19509;43.862;26.176;2022-09-09T11:20:59;100610.16;;;32.59;30.18
33153;BME280;19509;43.862;26.176;2022-09-09T11:23:45;100607.03;;;32.44;28.79
33153;BME280;19509;43.862;26.176;2022-09-09T11:26:27;100606.84;;;32.69;29.45
33153;BME280;19509;43.862;26.176;2022-09-09T11:29:11;100600.00;;;32.82;28.83
33153;BME280;19509;43.862;26.176;2022-09-09T11:38:06;100596.41;;;32.50;28.90
33153;BME280;19509;43.862;26.176;2022-09-09T11:40:22;100590.94;;;32.85;28.90
33153;BME280;19509;43.862;26.176;2022-09-09T11:42:48;100581.84;;;32.88;28.61
33153;BME280;19509;43.862;26.176;2022-09-09T11:45:28;100593.53;;;33.10;29.79
33153;BME280;19509;43.862;26.176;2022-09-09T11:47:59;100592.66;;;33.25;29.73
33153;BME280;19509;43.862;26.176;2022-09-09T11:52:50;100594.63;;;32.58;30.22
33153;BME280;19509;43.862;26.176;2022-09-09T11:55:28;100588.94;;;32.54;29.74
33153;BME280;19509;43.862;26.176;2022-09-09T11:58:13;100577.25;;;32.64;29.35
33153;BME280;19509;43.862;26.176;2022-09-09T12:00:45;100584.44;;;33.13;28.41
33153;BME280;19509;43.862;26.176;2022-09-09T12:05:57;100580.38;;;32.94;29.65
33153;BME280;19509;43.862;26.176;2022-09-09T12:08:27;100578.19;;;32.68;29.30
33153;BME280;19509;43.862;26.176;2022-09-09T12:10:58;100564.25;;;32.68;29.46
33153;BME280;19509;43.862;26.176;2022-09-09T12:13:26;100566.03;;;32.77;28.88
33153;BME280;19509;43.862;26.176;2022-09-09T12:15:53;100563.22;;;32.92;28.47
33153;BME280;19509;43.862;26.176;2022-09-09T12:18:36;100560.34;;;33.40;28.74
33153;BME280;19509;43.862;26.176;2022-09-09T12:23:55;100556.56;;;34.10;27.91
33153;BME280;19509;43.862;26.176;2022-09-09T12:29:16;100554.69;;;33.95;27.81
33153;BME280;19509;43.862;26.176;2022-09-09T12:34:17;100536.22;;;33.90;28.08
33153;BME280;19509;43.862;26.176;2022-09-09T12:36:50;100532.75;;;33.74;27.63
33153;BME280;19509;43.862;26.176;2022-09-09T12:39:31;100535.72;;;33.45;28.40
33153;BME280;19509;43.862;26.176;2022-09-09T12:41:59;100530.19;;;33.10;28.61
33153;BME280;19509;43.862;26.176;2022-09-09T12:44:25;100529.78;;;32.92;28.70
33153;BME280;19509;43.862;26.176;2022-09-09T12:46:53;100531.75;;;32.92;29.90
33153;BME280;19509;43.862;26.176;2022-09-09T12:52:19;100518.25;;;32.43;29.19
33153;BME280;19509;43.862;26.176;2022-09-09T12:54:48;100512.13;;;32.37;29.76
33153;BME280;19509;43.862;26.176;2022-09-09T12:57:16;100514.53;;;32.39;29.52
33153;BME280;19509;43.862;26.176;2022-09-09T12:59:43;100504.88;;;32.48;30.17
33153;BME280;19509;43.862;26.176;2022-09-09T13:02:24;100508.31;;;32.77;30.09
33153;BME280;19509;43.862;26.176;2022-09-09T13:04:50;100509.59;;;32.64;31.01
33153;BME280;19509;43.862;26.176;2022-09-09T13:07:18;100491.03;;;32.52;31.49
33153;BME280;19509;43.862;26.176;2022-09-09T13:09:45;100502.94;;;32.37;31.03
33153;BME280;19509;43.862;26.176;2022-09-09T13:12:15;100497.56;;;32.12;31.58
33153;BME280;19509;43.862;26.176;2022-09-09T13:14:44;100488.78;;;32.10;31.62
33153;BME280;19509;43.862;26.176;2022-09-09T13:17:24;100485.88;;;32.22;32.23
33153;BME280;19509;43.862;26.176;2022-09-09T13:19:52;100483.59;;;32.76;32.14
33153;BME280;19509;43.862;26.176;2022-09-09T13:22:30;100481.66;;;32.60;29.12
33153;BME280;19509;43.862;26.176;2022-09-09T13:27:38;100484.66;;;32.87;30.74
33153;BME280;19509;43.862;26.176;2022-09-09T13:30:24;100481.63;;;33.11;29.33
33153;BME280;19509;43.862;26.176;2022-09-09T13:33:04;100488.41;;;33.49;28.94
33153;BME280;19509;43.862;26.176;2022-09-09T13:35:30;100492.09;;;33.53;29.77
33153;BME280;19509;43.862;26.176;2022-09-09T13:37:57;100474.38;;;33.65;28.26
33153;BME280;19509;43.862;26.176;2022-09-09T13:40:24;100479.56;;;33.47;28.54
33153;BME280;19509;43.862;26.176;2022-09-09T13:42:56;100476.19;;;32.99;29.55
33153;BME280;19509;43.862;26.176;2022-09-09T13:45:25;100478.19;;;32.47;30.29
33153;BME280;19509;43.862;26.176;2022-09-09T13:47:54;100474.47;;;32.12;32.00
33153;BME280;19509;43.862;26.176;2022-09-09T13:50:29;100476.63;;;32.02;32.49
33153;BME280;19509;43.862;26.176;2022-09-09T13:52:58;100468.09;;;31.95;33.43
33153;BME280;19509;43.862;26.176;2022-09-09T13:55:27;100481.59;;;31.81;33.36
33153;BME280;19509;43.862;26.176;2022-09-09T13:57:57;100466.66;;;31.57;32.83
33153;BME280;19509;43.862;26.176;2022-09-09T14:00:24;100471.63;;;31.36;33.99
33153;BME280;19509;43.862;26.176;2022-09-09T14:02:50;100459.44;;;31.28;35.41
33153;BME280;19509;43.862;26.176;2022-09-09T14:05:17;100462.03;;;31.21;35.26
33153;BME280;19509;43.862;26.176;2022-09-09T14:07:44;100467.91;;;30.92;36.06
33153;BME280;19509;43.862;26.176;2022-09-09T14:10:11;100461.22;;;30.80;35.76
33153;BME280;19509;43.862;26.176;2022-09-09T14:12:36;100458.66;;;30.87;34.71
33153;BME280;19509;43.862;26.176;2022-09-09T14:15:04;100450.09;;;30.80;34.87
33153;BME280;19509;43.862;26.176;2022-09-09T14:17:30;100445.13;;;30.86;34.75
33153;BME280;19509;43.862;26.176;2022-09-09T14:19:57;100446.25;;;30.73;36.49
33153;BME280;19509;43.862;26.176;2022-09-09T14:22:22;100440.59;;;30.69;36.75
33153;BME280;19509;43.862;26.176;2022-09-09T14:24:48;100440.38;;;30.50;36.34
33153;BME280;19509;43.862;26.176;2022-09-09T14:27:14;100439.00;;;30.56;35.85
33153;BME280;19509;43.862;26.176;2022-09-09T14:29:40;100445.63;;;30.51;36.80
33153;BME280;19509;43.862;26.176;2022-09-09T14:32:06;100448.72;;;30.62;36.64
33153;BME280;19509;43.862;26.176;2022-09-09T14:34:31;100448.94;;;30.57;37.90
33153;BME280;19509;43.862;26.176;2022-09-09T14:36:58;100439.16;;;30.47;38.93
33153;BME280;19509;43.862;26.176;2022-09-09T14:39:23;100447.09;;;30.36;39.20
33153;BME280;19509;43.862;26.176;2022-09-09T14:41:49;100437.16;;;30.35;38.45
33153;BME280;19509;43.862;26.176;2022-09-09T14:44:14;100439.56;;;30.12;37.21
33153;BME280;19509;43.862;26.176;2022-09-09T14:46:41;100444.88;;;29.93;40.60